Time;durP1;ratioP1;P1;durP2;ratioP2;P2;SDS_P1;SDS_P2;PMS_P1;PMS_P2;Temp;Humidity;BMP_temperature;BMP_pressure;BME280_temperature;BME280_humidity;BME280_pressure;Samples;Min_cycle;Max_cycle;Signal;HPM_P1;HPM_P2
2022/03/17 00:00:13;;;;;;;19.27;12.45;;;;;;;6.21;69.31;96046.41;5050220;28;20082;-75
2022/03/17 00:02:39;;;;;;;18.15;12.00;;;;;;;6.23;69.64;96055.06;5085900;28;20047;-77
2022/03/17 00:05:08;;;;;;;20.05;12.13;;;;;;;6.26;68.87;96047.66;5067030;28;20398;-75
2022/03/17 00:07:34;;;;;;;19.50;11.23;;;;;;;6.36;68.18;96049.50;5050988;28;20028;-75
2022/03/17 00:09:59;;;;;;;17.60;10.40;;;;;;;6.40;68.56;96056.28;5085063;28;20085;-76
2022/03/17 00:12:25;;;;;;;16.40;11.55;;;;;;;6.38;68.35;96052.91;5085115;28;20028;-76
2022/03/17 00:14:51;;;;;;;16.17;11.18;;;;;;;6.48;68.29;96048.41;5085449;28;20027;-76
2022/03/17 00:17:17;;;;;;;14.52;10.63;;;;;;;6.46;68.22;96050.41;5084803;28;20498;-76
2022/03/17 00:19:42;;;;;;;17.50;11.60;;;;;;;6.41;68.92;96052.63;5067800;28;20077;-76
2022/03/17 00:22:08;;;;;;;16.95;10.88;;;;;;;6.45;68.75;96053.19;5084820;28;20050;-76
2022/03/17 00:24:35;;;;;;;17.33;11.40;;;;;;;6.43;68.02;96053.34;5084006;28;20024;-76
2022/03/17 00:27:02;;;;;;;18.55;11.05;;;;;;;6.45;68.29;96042.53;5084397;28;20044;-76
2022/03/17 00:29:27;;;;;;;19.85;11.90;;;;;;;6.44;68.60;96039.03;5066948;28;20109;-76
2022/03/17 00:31:53;;;;;;;16.55;11.27;;;;;;;6.41;68.29;96042.81;5083693;28;20456;-77
2022/03/17 00:34:18;;;;;;;20.80;12.82;;;;;;;6.38;68.66;96042.25;5083264;28;20097;-76
2022/03/17 00:36:46;;;;;;;15.68;11.85;;;;;;;6.29;69.19;96058.06;5067497;28;20040;-75
2022/03/17 00:39:11;;;;;;;17.95;11.77;;;;;;;6.29;69.07;96060.72;5084178;28;20530;-76
2022/03/17 00:41:37;;;;;;;20.08;12.20;;;;;;;6.29;69.87;96071.38;5067056;28;20036;-76
2022/03/17 00:44:03;;;;;;;16.15;11.48;;;;;;;6.35;68.66;96079.81;5066516;28;20024;-76
2022/03/17 00:46:28;;;;;;;20.58;12.88;;;;;;;6.24;69.38;96075.44;5083421;28;20066;-76
2022/03/17 00:48:54;;;;;;;19.63;12.82;;;;;;;6.18;69.10;96084.78;5071189;28;20447;-76
2022/03/17 00:51:19;;;;;;;23.80;14.43;;;;;;;6.17;69.82;96089.25;5070620;28;20026;-75
2022/03/17 00:53:46;;;;;;;21.23;14.38;;;;;;;6.12;69.49;96078.19;5071441;28;20023;-76
2022/03/17 00:56:11;;;;;;;24.23;14.68;;;;;;;5.99;70.29;96081.03;5070253;28;20031;-76
2022/03/17 00:58:37;;;;;;;23.65;14.80;;;;;;;5.89;71.43;96082.78;5088317;28;20024;-77
2022/03/17 01:01:03;;;;;;;21.75;13.18;;;;;;;5.87;71.42;96074.09;5087177;28;20039;-77
2022/03/17 01:03:28;;;;;;;19.63;13.10;;;;;;;5.85;71.61;96073.38;5087747;28;20031;-76
2022/03/17 01:05:53;;;;;;;17.30;13.02;;;;;;;5.88;71.52;96083.78;5088737;28;20043;-77
2022/03/17 01:08:19;;;;;;;18.30;11.65;;;;;;;5.98;70.16;96084.66;5088442;28;20514;-76
2022/03/17 01:10:44;;;;;;;17.02;11.63;;;;;;;5.99;70.18;96080.19;5087581;28;20380;-77
2022/03/17 01:13:10;;;;;;;11.55;9.10;;;;;;;5.89;70.24;96085.44;5086782;28;20032;-77
2022/03/17 01:15:35;;;;;;;7.93;6.22;;;;;;;5.97;66.95;96087.44;5087843;28;20035;-77
2022/03/17 01:18:02;;;;;;;8.55;5.97;;;;;;;5.81;67.40;96083.44;5086748;28;20027;-75
2022/03/17 01:20:29;;;;;;;7.63;5.50;;;;;;;5.79;67.05;96090.72;5087529;28;20025;-75
2022/03/17 01:22:55;;;;;;;5.00;4.40;;;;;;;5.77;67.21;96098.00;5088271;28;20047;-75
2022/03/17 01:25:20;;;;;;;4.28;3.60;;;;;;;5.87;65.83;96098.06;5070100;28;20024;-76
2022/03/17 01:27:46;;;;;;;5.20;3.47;;;;;;;5.75;66.05;96094.63;5088423;28;20131;-77
2022/03/17 01:30:12;;;;;;;4.28;3.58;;;;;;;5.74;65.95;96092.94;5087792;28;20036;-75
2022/03/17 01:32:40;;;;;;;3.72;3.03;;;;;;;5.74;65.93;96099.09;5087167;28;20024;-75
2022/03/17 01:35:07;;;;;;;3.70;2.95;;;;;;;5.78;65.50;96095.22;5087740;28;20046;-76
2022/03/17 01:37:33;;;;;;;4.10;3.35;;;;;;;5.76;65.31;96101.63;5087460;28;20030;-76
2022/03/17 01:39:59;;;;;;;4.25;2.92;;;;;;;5.69;66.79;96101.31;5069887;28;20093;-76
2022/03/17 01:42:24;;;;;;;4.30;3.25;;;;;;;5.72;65.68;96101.06;5086738;28;20478;-76
2022/03/17 01:44:50;;;;;;;4.95;3.80;;;;;;;5.78;65.75;96097.88;5086505;28;20414;-76
2022/03/17 01:47:28;;;;;;;4.78;4.00;;;;;;;5.78;66.28;96095.22;5069387;28;20031;-78
2022/03/17 01:50:01;;;;;;;7.60;4.22;;;;;;;5.75;65.21;96092.81;5072166;28;20016;-76
2022/03/17 01:52:26;;;;;;;6.88;4.47;;;;;;;5.68;65.76;96099.63;5086114;28;20027;-76
2022/03/17 01:54:53;;;;;;;6.70;5.10;;;;;;;5.53;66.24;96099.94;5070472;28;20020;-77
2022/03/17 01:57:18;;;;;;;7.35;5.22;;;;;;;5.54;67.06;96096.31;5068948;28;20031;-76
2022/03/17 01:59:44;;;;;;;7.35;4.85;;;;;;;5.58;66.47;96110.19;5069390;28;20410;-76
2022/03/17 02:02:11;;;;;;;5.40;4.35;;;;;;;5.51;67.72;96104.56;5052663;28;20032;-76
2022/03/17 02:04:37;;;;;;;5.65;4.20;;;;;;;5.51;66.74;96096.56;5069293;28;20031;-76
2022/03/17 02:07:05;;;;;;;5.70;4.10;;;;;;;5.52;66.47;96092.94;5069793;28;20024;-76
2022/03/17 02:09:33;;;;;;;5.53;3.95;;;;;;;5.43;66.89;96099.84;5069245;28;20024;-76
2022/03/17 02:15:00;;;;;;;4.82;3.90;;;;;;;5.35;67.61;96122.75;5071639;28;20028;-77
2022/03/17 02:17:27;;;;;;;4.88;4.03;;;;;;;5.36;67.85;96132.41;5087225;28;20410;-76
2022/03/17 02:19:53;;;;;;;5.15;3.90;;;;;;;5.28;68.22;96139.25;5086285;28;20047;-77
2022/03/17 02:22:19;;;;;;;4.30;3.63;;;;;;;5.28;67.46;96149.88;5069041;28;20031;-76
2022/03/17 02:27:45;;;;;;;4.75;3.13;;;;;;;5.30;68.31;96139.94;5085319;28;20122;-76
2022/03/17 02:30:11;;;;;;;4.68;3.63;;;;;;;5.31;67.93;96140.78;5085931;28;20374;-77
2022/03/17 02:32:37;;;;;;;4.43;3.60;;;;;;;5.40;66.11;96144.53;5085452;28;20020;-76
2022/03/17 02:35:04;;;;;;;3.85;3.20;;;;;;;5.38;65.91;96141.13;5086865;28;20032;-76
2022/03/17 02:37:30;;;;;;;3.70;2.90;;;;;;;5.38;65.92;96141.97;5069187;28;20410;-77
2022/03/17 02:39:56;;;;;;;3.85;3.03;;;;;;;5.36;66.54;96143.06;5068374;28;20505;-76
2022/03/17 02:42:21;;;;;;;4.30;3.28;;;;;;;5.31;66.69;96143.44;5086277;28;20036;-76
2022/03/17 02:44:48;;;;;;;4.43;3.17;;;;;;;5.32;66.88;96145.97;5084884;28;20027;-76
2022/03/17 02:47:14;;;;;;;4.55;3.25;;;;;;;5.31;65.92;96146.97;5085486;28;20063;-75
2022/03/17 02:49:39;;;;;;;3.67;3.10;;;;;;;5.33;66.86;96144.19;5085144;28;20051;-75
2022/03/17 02:52:06;;;;;;;3.83;3.08;;;;;;;5.32;66.28;96148.63;5051781;28;20533;-75
2022/03/17 02:54:31;;;;;;;3.85;3.10;;;;;;;5.31;66.21;96152.28;5086413;28;20434;-76
2022/03/17 02:56:57;;;;;;;4.03;3.42;;;;;;;5.26;66.64;96157.13;5051564;28;20020;-76
2022/03/17 02:59:22;;;;;;;3.85;3.08;;;;;;;5.32;66.17;96147.78;5069252;28;20028;-76
2022/03/17 03:01:47;;;;;;;3.83;3.40;;;;;;;5.32;66.62;96153.97;5084511;28;20024;-77
2022/03/17 03:04:16;;;;;;;3.60;3.10;;;;;;;5.29;67.28;96153.34;5086008;28;20117;-77
2022/03/17 03:06:41;;;;;;;3.53;2.85;;;;;;;5.32;66.76;96158.41;5084895;28;20020;-76
2022/03/17 03:09:07;;;;;;;4.43;3.33;;;;;;;5.32;66.00;96159.28;5084708;28;20077;-76
2022/03/17 03:11:32;;;;;;;4.45;3.50;;;;;;;5.31;66.30;96162.91;5084517;28;20031;-76
2022/03/17 03:13:57;;;;;;;3.97;3.30;;;;;;;5.26;66.65;96153.63;5067801;28;20149;-77
2022/03/17 03:16:23;;;;;;;4.57;3.40;;;;;;;5.20;66.61;96168.28;5068435;28;20032;-77
2022/03/17 03:18:48;;;;;;;4.13;3.50;;;;;;;5.18;67.21;96173.72;5084295;28;20035;-76
2022/03/17 03:21:14;;;;;;;5.75;3.75;;;;;;;5.08;67.31;96172.75;5087075;28;20476;-77
2022/03/17 03:23:39;;;;;;;4.55;3.70;;;;;;;5.09;66.81;96165.63;5085538;28;20031;-77
2022/03/17 03:26:05;;;;;;;5.28;3.72;;;;;;;5.01;67.73;96172.44;5086649;28;20016;-76
2022/03/17 03:28:30;;;;;;;4.35;3.42;;;;;;;5.04;67.91;96166.00;5084366;28;20047;-76
2022/03/17 03:30:55;;;;;;;4.82;3.90;;;;;;;5.05;67.54;96176.53;5067419;28;20020;-76
2022/03/17 03:33:21;;;;;;;4.07;3.65;;;;;;;5.08;66.79;96164.78;5086299;28;20493;-76
2022/03/17 03:38:30;;;;;;;4.43;3.63;;;;;;;5.06;67.18;96169.41;5085514;28;20039;-75
2022/03/17 03:40:56;;;;;;;5.07;3.75;;;;;;;5.09;67.50;96173.63;5083820;28;20218;-76
2022/03/17 03:43:21;;;;;;;4.68;3.80;;;;;;;4.97;67.54;96176.28;5086050;28;20028;-76
2022/03/17 03:45:50;;;;;;;5.97;4.82;;;;;;;5.01;68.03;96183.06;5084162;28;20024;-76
2022/03/17 03:48:15;;;;;;;6.03;4.78;;;;;;;4.95;67.65;96181.72;5085626;28;20062;-76
2022/03/17 03:50:41;;;;;;;5.97;4.57;;;;;;;4.67;68.84;96181.31;5067610;28;20590;-76
2022/03/17 03:53:06;;;;;;;6.55;4.85;;;;;;;4.63;69.24;96189.59;5066848;28;20035;-75
2022/03/17 03:55:31;;;;;;;7.53;5.47;;;;;;;4.75;68.46;96199.28;5068019;28;20047;-77
2022/03/17 03:57:59;;;;;;;7.65;6.10;;;;;;;4.75;68.77;96193.97;5084858;28;20032;-76
2022/03/17 04:02:57;;;;;;;11.32;6.22;;;;;;;4.75;68.34;96203.75;5085250;28;20055;-75
2022/03/17 04:05:26;;;;;;;9.73;6.70;;;;;;;4.77;67.88;96207.13;5083981;28;20056;-77
2022/03/17 04:07:51;;;;;;;10.05;6.95;;;;;;;4.78;67.81;96214.13;5083653;28;20032;-76
2022/03/17 04:10:17;;;;;;;12.20;7.68;;;;;;;4.81;67.41;96224.53;5083815;28;20379;-76
2022/03/17 04:12:42;;;;;;;13.05;8.48;;;;;;;4.78;67.84;96220.31;5085876;28;20077;-76
2022/03/17 04:15:08;;;;;;;11.00;8.38;;;;;;;4.84;67.27;96220.78;5083142;28;20020;-76
2022/03/17 04:17:34;;;;;;;10.98;7.85;;;;;;;4.84;67.33;96224.28;5085849;28;20031;-77
2022/03/17 04:19:59;;;;;;;11.77;8.20;;;;;;;4.81;67.64;96228.03;5066349;28;20032;-75
2022/03/17 04:22:24;;;;;;;13.48;8.48;;;;;;;4.82;67.10;96229.72;5084126;28;20020;-76
2022/03/17 04:24:50;;;;;;;12.68;8.73;;;;;;;4.77;68.04;96236.38;5084994;28;20031;-76
2022/03/17 04:27:15;;;;;;;13.88;9.30;;;;;;;4.69;68.58;96248.44;5066376;28;20032;-78
2022/03/17 04:29:41;;;;;;;13.15;9.30;;;;;;;4.76;67.96;96251.47;5083960;28;20016;-79
2022/03/17 04:32:07;;;;;;;16.23;10.50;;;;;;;4.72;68.04;96247.38;5082986;28;20031;-78
2022/03/17 04:34:32;;;;;;;13.80;9.27;;;;;;;4.80;67.81;96260.06;5067645;28;20035;-80
2022/03/17 04:36:58;;;;;;;14.23;9.85;;;;;;;4.75;68.28;96255.09;5066362;28;20025;-78
2022/03/17 04:39:23;;;;;;;12.48;9.43;;;;;;;4.72;67.58;96254.47;5083973;28;20471;-77
2022/03/17 04:41:50;;;;;;;13.15;9.13;;;;;;;4.66;67.20;96258.47;5083137;28;20020;-78
2022/03/17 04:44:15;;;;;;;13.45;8.98;;;;;;;4.67;67.23;96260.16;5066641;28;20057;-76
2022/03/17 04:46:41;;;;;;;14.80;9.68;;;;;;;4.67;66.70;96261.03;5083445;28;20164;-76
2022/03/17 04:49:06;;;;;;;14.50;9.65;;;;;;;4.62;67.93;96263.19;5084436;28;20035;-76
2022/03/17 04:51:32;;;;;;;14.98;10.05;;;;;;;4.57;67.74;96260.88;5067153;28;20024;-76
2022/03/17 04:53:58;;;;;;;14.18;9.60;;;;;;;4.54;68.49;96266.44;5066198;28;20122;-76
2022/03/17 04:56:23;;;;;;;14.27;9.82;;;;;;;4.52;67.90;96272.81;5067353;28;20035;-76
2022/03/17 04:58:49;;;;;;;15.68;10.45;;;;;;;4.54;68.53;96277.06;5082808;28;20032;-76
2022/03/17 05:01:14;;;;;;;14.00;9.90;;;;;;;4.47;68.41;96275.81;5067008;28;20020;-76
2022/03/17 05:03:40;;;;;;;14.25;10.10;;;;;;;4.48;68.84;96287.31;5066305;28;20051;-77
2022/03/17 05:06:06;;;;;;;14.52;10.10;;;;;;;4.39;69.24;96283.53;5066655;28;20455;-76
2022/03/17 05:08:35;;;;;;;14.18;9.63;;;;;;;4.54;68.35;96286.84;5066503;28;20444;-76
2022/03/17 05:11:00;;;;;;;11.52;8.73;;;;;;;4.57;67.97;96290.13;5066111;28;20028;-76
2022/03/17 05:13:26;;;;;;;13.30;9.20;;;;;;;4.50;68.20;96296.03;5083936;28;20020;-78
2022/03/17 05:15:51;;;;;;;15.27;10.02;;;;;;;4.49;68.13;96299.63;5048924;28;20448;-76
2022/03/17 05:18:17;;;;;;;17.00;9.88;;;;;;;4.44;68.90;96305.28;5083650;28;20035;-75
2022/03/17 05:20:43;;;;;;;12.45;9.05;;;;;;;4.57;67.22;96306.06;5066162;28;20387;-75
2022/03/17 05:23:10;;;;;;;13.50;9.25;;;;;;;4.53;68.03;96307.25;5084445;28;20043;-76
2022/03/17 05:25:36;;;;;;;11.07;8.20;;;;;;;4.50;68.49;96304.81;5083176;28;20081;-77
2022/03/17 05:28:02;;;;;;;13.07;8.68;;;;;;;4.52;68.13;96302.91;5084028;28;20101;-76
2022/03/17 05:30:27;;;;;;;13.05;8.05;;;;;;;4.56;67.12;96308.81;5066803;28;20040;-77
2022/03/17 05:32:53;;;;;;;13.63;8.43;;;;;;;4.44;68.34;96314.13;5066100;28;20020;-76
2022/03/17 05:35:18;;;;;;;12.43;7.75;;;;;;;4.37;68.35;96318.19;5054284;28;20027;-75
2022/03/17 05:37:44;;;;;;;11.55;7.90;;;;;;;4.33;69.25;96317.59;5052681;28;20063;-75
2022/03/17 05:40:14;;;;;;;12.85;8.25;;;;;;;4.24;69.15;96322.75;5053773;28;20020;-75
2022/03/17 05:42:43;;;;;;;11.73;8.23;;;;;;;4.19;69.79;96336.38;5088046;28;20028;-76
2022/03/17 05:45:09;;;;;;;13.23;8.82;;;;;;;4.19;70.28;96337.19;5069597;28;20325;-76
2022/03/17 05:47:38;;;;;;;15.30;9.18;;;;;;;4.28;69.46;96341.00;5088199;28;20043;-75
2022/03/17 05:50:04;;;;;;;13.05;8.75;;;;;;;4.30;68.92;96339.06;5086057;28;20063;-76
2022/03/17 05:52:31;;;;;;;13.48;8.88;;;;;;;4.24;69.57;96352.78;5087504;28;20050;-78
2022/03/17 05:54:56;;;;;;;16.17;10.30;;;;;;;4.27;69.68;96352.56;5086037;28;20052;-77
2022/03/17 05:57:21;;;;;;;13.02;8.25;;;;;;;4.29;69.82;96355.09;5069843;28;20517;-76
2022/03/17 05:59:47;;;;;;;13.25;8.65;;;;;;;4.22;70.12;96357.38;5087722;28;20039;-76
2022/03/17 06:02:12;;;;;;;13.35;8.68;;;;;;;4.29;69.64;96363.91;5086072;28;20024;-76
2022/03/17 06:04:38;;;;;;;14.07;8.57;;;;;;;4.35;69.41;96373.25;5087765;28;20074;-76
2022/03/17 06:07:04;;;;;;;13.82;8.50;;;;;;;4.35;69.49;96364.44;5085993;28;20047;-77
2022/03/17 06:09:29;;;;;;;12.77;8.40;;;;;;;4.48;68.49;96367.88;5069616;28;20490;-80
2022/03/17 06:11:57;;;;;;;13.07;8.45;;;;;;;4.47;68.97;96363.50;5086958;28;20138;-76
2022/03/17 06:14:22;;;;;;;12.88;8.85;;;;;;;4.48;69.19;96367.00;5086978;28;20031;-76
2022/03/17 06:16:48;;;;;;;12.88;8.73;;;;;;;4.54;68.71;96367.41;5087094;28;20028;-76
2022/03/17 06:19:13;;;;;;;13.07;8.50;;;;;;;4.47;68.10;96368.81;5085935;28;20042;-75
2022/03/17 06:21:39;;;;;;;12.77;8.20;;;;;;;4.54;69.21;96374.50;5087266;28;20032;-77
2022/03/17 06:24:04;;;;;;;12.18;8.63;;;;;;;4.50;69.33;96381.88;5087924;28;20027;-77
2022/03/17 06:26:30;;;;;;;14.07;9.18;;;;;;;4.46;69.11;96375.09;5087162;28;20111;-76
2022/03/17 06:28:55;;;;;;;12.77;8.40;;;;;;;4.53;68.83;96376.31;5086876;28;20027;-76
2022/03/17 06:31:21;;;;;;;13.13;8.80;;;;;;;4.52;68.73;96382.59;5086451;28;20016;-76
2022/03/17 06:33:46;;;;;;;13.35;8.00;;;;;;;4.56;68.43;96386.72;5086670;28;20077;-77
2022/03/17 06:36:13;;;;;;;11.55;6.88;;;;;;;4.61;67.86;96396.97;5087401;28;20509;-76
2022/03/17 06:38:38;;;;;;;10.57;7.43;;;;;;;4.64;67.87;96398.59;5087205;28;20024;-76
2022/03/17 06:41:04;;;;;;;8.85;6.40;;;;;;;4.61;68.26;96398.81;5085459;28;20063;-77
2022/03/17 06:43:29;;;;;;;11.23;6.70;;;;;;;4.54;68.44;96404.59;5087052;28;20032;-77
2022/03/17 06:45:55;;;;;;;10.18;7.28;;;;;;;4.54;68.89;96407.25;5084302;28;20024;-78
2022/03/17 06:48:20;;;;;;;10.65;6.70;;;;;;;4.60;68.41;96405.06;5087019;28;20028;-76
2022/03/17 06:50:45;;;;;;;8.77;6.53;;;;;;;4.54;68.42;96407.25;5084902;28;20058;-76
2022/03/17 06:53:11;;;;;;;8.23;6.20;;;;;;;4.57;67.98;96412.34;5086119;28;20020;-78
2022/03/17 06:55:36;;;;;;;9.80;7.03;;;;;;;4.63;68.57;96412.81;5084835;28;20024;-76
2022/03/17 06:58:02;;;;;;;11.77;5.65;;;;;;;4.60;68.55;96423.69;5085431;28;20077;-78
2022/03/17 07:00:27;;;;;;;6.72;5.50;;;;;;;4.55;68.60;96427.53;5084954;28;20028;-75
2022/03/17 07:02:53;;;;;;;9.00;6.03;;;;;;;4.56;68.31;96418.59;5068288;28;20020;-76
2022/03/17 07:05:18;;;;;;;10.90;6.35;;;;;;;4.51;68.16;96415.47;5085044;28;20047;-82
2022/03/17 07:07:44;;;;;;;8.40;6.03;;;;;;;4.56;67.57;96426.56;5067766;28;20434;-77
2022/03/17 07:10:09;;;;;;;9.00;6.53;;;;;;;4.57;67.55;96428.28;5051966;28;20047;-77
2022/03/17 07:12:35;;;;;;;10.38;6.75;;;;;;;4.52;68.04;96427.75;5084730;28;20095;-76
2022/03/17 07:15:01;;;;;;;9.75;6.43;;;;;;;4.47;68.37;96435.22;5085746;28;20125;-78
2022/03/17 07:17:26;;;;;;;9.52;6.85;;;;;;;4.44;68.35;96436.31;5067516;28;20024;-76
2022/03/17 07:22:24;;;;;;;9.68;6.45;;;;;;;4.37;68.87;96442.19;5084814;28;20024;-77
2022/03/17 07:24:49;;;;;;;8.45;6.93;;;;;;;4.44;67.71;96440.78;5084842;28;20024;-77
2022/03/17 07:27:15;;;;;;;9.80;6.80;;;;;;;4.47;68.55;96440.53;5084564;28;20044;-77
2022/03/17 07:29:40;;;;;;;10.57;6.72;;;;;;;4.43;68.87;96449.72;5084356;28;20038;-77
2022/03/17 07:32:06;;;;;;;17.63;8.93;;;;;;;4.41;69.07;96452.47;5085308;28;20470;-76
2022/03/17 07:34:31;;;;;;;11.27;7.70;;;;;;;4.40;68.95;96452.59;5085401;28;20026;-77
2022/03/17 07:36:57;;;;;;;9.93;6.45;;;;;;;4.45;67.89;96453.06;5084833;28;20020;-76
2022/03/17 07:39:22;;;;;;;10.10;7.15;;;;;;;4.55;67.60;96453.25;5084105;28;20054;-76
2022/03/17 07:41:48;;;;;;;13.25;7.68;;;;;;;4.62;67.40;96459.81;5084208;28;20108;-76
2022/03/17 07:44:14;;;;;;;11.63;7.78;;;;;;;4.49;65.96;96449.25;5084521;28;20028;-76
2022/03/17 07:46:40;;;;;;;11.40;8.05;;;;;;;4.47;65.90;96453.81;5067345;28;20046;-75
2022/03/17 07:49:05;;;;;;;12.32;8.05;;;;;;;4.36;67.22;96459.94;5068388;28;20028;-76
2022/03/17 07:51:31;;;;;;;10.88;7.65;;;;;;;4.27;66.74;96466.75;5085204;28;20047;-77
2022/03/17 07:53:56;;;;;;;12.35;8.40;;;;;;;4.25;68.06;96467.84;5051462;28;20036;-77
2022/03/17 07:56:22;;;;;;;12.80;8.57;;;;;;;4.17;67.81;96465.75;5049934;28;20039;-78
2022/03/17 07:58:47;;;;;;;12.20;8.60;;;;;;;4.20;67.40;96462.88;5085493;28;20402;-76
2022/03/17 08:01:12;;;;;;;14.77;9.48;;;;;;;4.18;68.05;96462.97;5067094;28;20041;-78
2022/03/17 08:03:41;;;;;;;12.75;9.30;;;;;;;4.23;67.84;96462.63;5085115;28;20482;-78
2022/03/17 08:06:06;;;;;;;13.15;8.80;;;;;;;4.31;67.86;96460.28;5067501;28;20024;-79
2022/03/17 08:08:34;;;;;;;13.05;8.82;;;;;;;4.39;66.92;96462.38;5083311;28;20032;-78
2022/03/17 08:10:59;;;;;;;12.93;9.80;;;;;;;4.42;67.42;96459.47;5068570;28;20031;-76
2022/03/17 08:13:25;;;;;;;15.43;9.57;;;;;;;4.46;68.03;96457.44;5066433;28;20024;-75
2022/03/17 08:15:51;;;;;;;15.15;9.48;;;;;;;4.46;67.00;96462.75;5084169;28;20020;-76
2022/03/17 08:18:16;;;;;;;13.75;9.68;;;;;;;4.51;66.69;96460.63;5085175;28;20497;-77
2022/03/17 08:20:42;;;;;;;12.43;8.65;;;;;;;4.63;66.13;96461.50;5083548;28;20478;-74
2022/03/17 08:23:07;;;;;;;13.38;9.60;;;;;;;4.67;66.01;96462.13;5084001;28;20020;-75
2022/03/17 08:25:33;;;;;;;14.10;9.68;;;;;;;4.65;65.24;96461.38;5066722;28;20503;-77
2022/03/17 08:28:02;;;;;;;12.52;9.27;;;;;;;4.68;66.34;96466.47;5083884;28;20052;-79
2022/03/17 08:30:28;;;;;;;12.18;8.85;;;;;;;4.67;64.93;96462.13;5067144;28;20024;-78
2022/03/17 08:32:53;;;;;;;11.27;8.75;;;;;;;4.72;65.10;96465.28;5085529;28;20020;-77
2022/03/17 08:35:19;;;;;;;13.07;9.18;;;;;;;4.69;63.72;96458.38;5084831;28;20035;-80
2022/03/17 08:37:45;;;;;;;12.63;8.95;;;;;;;4.73;64.83;96463.47;5066579;28;20027;-77
2022/03/17 08:40:12;;;;;;;12.65;8.98;;;;;;;4.76;64.85;96471.22;5084869;28;20073;-78
2022/03/17 08:42:38;;;;;;;12.75;9.10;;;;;;;4.87;63.94;96465.09;5083522;28;20070;-82
2022/03/17 08:49:18;;;;;;;10.57;8.45;;;;;;;4.90;63.00;96463.03;5085514;28;20028;-76
2022/03/17 08:50:33;;;;;;;10.38;7.07;;;;;;;5.00;61.51;96471.19;5083919;28;20035;-76
2022/03/17 08:52:58;;;;;;;9.98;7.10;;;;;;;4.90;61.64;96464.88;5086802;28;20028;-76
2022/03/17 08:55:24;;;;;;;10.38;7.95;;;;;;;4.87;62.71;96478.41;5066911;28;20020;-76
2022/03/17 08:57:49;;;;;;;8.68;6.43;;;;;;;4.73;61.80;96474.09;5084711;28;20017;-77
2022/03/17 09:00:15;;;;;;;9.15;6.45;;;;;;;4.65;61.48;96480.84;5084685;28;20023;-76
2022/03/17 09:02:44;;;;;;;9.90;7.15;;;;;;;4.79;61.85;96486.94;5085280;28;20024;-76
2022/03/17 09:05:10;;;;;;;8.02;6.00;;;;;;;4.74;60.42;96483.78;5066788;28;20035;-78
2022/03/17 09:07:35;;;;;;;7.80;6.22;;;;;;;4.86;61.24;96487.31;5083713;28;20028;-77
2022/03/17 09:10:01;;;;;;;8.63;6.18;;;;;;;4.81;60.46;96485.88;5087010;28;20031;-76
2022/03/17 09:12:29;;;;;;;7.65;5.90;;;;;;;4.94;61.30;96493.78;5088582;28;20028;-76
2022/03/17 09:14:55;;;;;;;8.90;6.18;;;;;;;4.93;61.02;96499.19;5087155;28;20028;-76
2022/03/17 09:17:21;;;;;;;7.90;6.18;;;;;;;4.99;59.99;96497.88;5087152;28;20111;-77
2022/03/17 09:19:46;;;;;;;7.10;5.53;;;;;;;4.90;60.16;96500.25;5070599;28;20158;-75
2022/03/17 09:22:12;;;;;;;7.32;5.20;;;;;;;4.92;59.98;96500.16;5087872;28;20024;-75
2022/03/17 09:24:37;;;;;;;6.72;4.50;;;;;;;4.96;59.83;96509.59;5087808;28;20077;-76
2022/03/17 09:27:03;;;;;;;6.55;5.45;;;;;;;4.98;59.77;96514.81;5086438;28;20105;-77
2022/03/17 09:29:29;;;;;;;7.28;5.25;;;;;;;5.05;59.71;96514.22;5087051;28;20032;-76
2022/03/17 09:31:58;;;;;;;6.60;5.28;;;;;;;5.12;59.55;96525.25;5087883;28;20103;-76
2022/03/17 09:34:23;;;;;;;11.65;6.30;;;;;;;5.05;59.57;96508.91;5088266;28;20108;-77
2022/03/17 09:36:49;;;;;;;7.88;5.68;;;;;;;5.14;58.79;96525.97;5086975;28;20340;-77
2022/03/17 09:41:59;;;;;;;5.95;4.38;;;;;;;5.20;58.86;96522.00;5088689;28;20036;-76
2022/03/17 09:44:24;;;;;;;5.95;4.75;;;;;;;5.27;59.69;96525.88;5086625;28;20012;-76
2022/03/17 09:46:49;;;;;;;5.97;5.00;;;;;;;5.31;59.17;96527.38;5086469;28;20555;-77
2022/03/17 09:49:15;;;;;;;5.13;4.18;;;;;;;5.34;58.58;96528.09;5052931;28;20024;-77
2022/03/17 09:51:42;;;;;;;5.47;4.28;;;;;;;5.30;58.33;96530.97;5086572;28;20024;-77
2022/03/17 09:54:08;;;;;;;6.35;4.70;;;;;;;5.36;58.42;96528.81;5087994;28;20032;-78
2022/03/17 09:56:33;;;;;;;5.93;4.50;;;;;;;5.37;57.29;96538.50;5086265;28;20021;-77
2022/03/17 09:58:59;;;;;;;5.60;4.80;;;;;;;5.29;57.10;96525.75;5088396;28;20028;-77
2022/03/17 10:01:28;;;;;;;5.90;4.75;;;;;;;5.27;58.35;96541.00;5069709;28;20052;-77
2022/03/17 10:04:03;;;;;;;5.53;4.43;;;;;;;5.34;59.55;96530.75;5069989;28;20028;-79
2022/03/17 10:06:29;;;;;;;6.30;5.13;;;;;;;5.25;59.33;96541.13;5086305;28;20032;-79
2022/03/17 10:08:56;;;;;;;5.75;5.03;;;;;;;5.43;58.36;96535.38;5052631;28;20028;-78
2022/03/17 10:11:26;;;;;;;6.75;5.35;;;;;;;5.56;59.08;96538.78;5086308;28;20020;-76
2022/03/17 10:13:54;;;;;;;8.52;5.35;;;;;;;5.63;58.39;96538.28;5085834;28;20028;-77
2022/03/17 10:16:20;;;;;;;8.30;5.55;;;;;;;5.66;59.14;96544.22;5086599;28;20571;-77
2022/03/17 10:18:46;;;;;;;8.20;5.80;;;;;;;5.59;58.30;96542.16;5085363;28;20016;-77
2022/03/17 10:21:17;;;;;;;7.50;5.82;;;;;;;5.67;57.89;96542.44;5086273;28;20110;-76
2022/03/17 10:24:02;;;;;;;8.57;6.03;;;;;;;5.51;58.29;96540.97;5086131;28;20024;-77
2022/03/17 10:26:47;;;;;;;8.77;6.03;;;;;;;5.42;57.86;96545.16;5086002;28;20072;-77
2022/03/17 10:29:15;;;;;;;8.10;5.68;;;;;;;5.18;57.80;96539.88;5086291;28;20032;-78
2022/03/17 10:31:50;;;;;;;7.45;5.95;;;;;;;5.40;57.17;96538.28;5085311;28;20058;-76
2022/03/17 10:34:16;;;;;;;9.02;6.30;;;;;;;5.29;57.47;96539.06;5086063;28;20024;-76
2022/03/17 10:36:45;;;;;;;9.30;5.55;;;;;;;5.15;57.44;96542.78;5068702;28;20032;-76
2022/03/17 10:39:11;;;;;;;11.10;5.90;;;;;;;5.12;58.12;96540.34;5069114;28;20026;-77
2022/03/17 10:41:54;;;;;;;10.20;6.60;;;;;;;5.11;58.69;96539.50;5087221;28;20054;-77
2022/03/17 10:44:19;;;;;;;7.55;5.57;;;;;;;5.21;58.59;96542.31;5085077;28;20028;-77
2022/03/17 10:47:03;;;;;;;12.00;5.93;;;;;;;5.38;57.76;96540.19;5086236;28;20028;-76
2022/03/17 10:49:28;;;;;;;8.48;5.72;;;;;;;5.40;57.75;96543.59;5085143;28;20065;-77
2022/03/17 10:51:54;;;;;;;8.10;5.20;;;;;;;5.38;56.74;96545.50;5068845;28;20391;-78
2022/03/17 10:54:20;;;;;;;6.95;4.95;;;;;;;5.34;56.15;96541.41;5068314;28;20032;-78
2022/03/17 10:57:05;;;;;;;7.63;5.40;;;;;;;5.38;57.09;96537.53;5085274;28;20059;-77
2022/03/17 10:59:49;;;;;;;10.93;6.10;;;;;;;5.39;57.33;96541.88;5085758;28;20409;-77
2022/03/17 11:02:21;;;;;;;7.18;5.22;;;;;;;5.35;57.54;96540.44;5084811;28;20028;-77
2022/03/17 11:04:47;;;;;;;8.57;5.70;;;;;;;5.42;57.47;96541.63;5069459;28;20086;-77
2022/03/17 11:07:14;;;;;;;8.02;6.07;;;;;;;5.42;57.23;96542.50;5068153;28;20069;-76
2022/03/17 11:09:43;;;;;;;10.45;6.35;;;;;;;5.51;56.93;96538.31;5086296;28;20028;-76
2022/03/17 11:12:17;;;;;;;8.63;5.85;;;;;;;5.60;57.47;96533.22;5085224;28;20417;-77
2022/03/17 11:14:49;;;;;;;12.00;6.15;;;;;;;5.63;55.78;96532.97;5068443;28;20628;-76
2022/03/17 11:17:47;;;;;;;10.63;7.07;;;;;;;5.60;54.87;96528.75;5068302;28;20042;-78
2022/03/17 11:20:16;;;;;;;10.85;6.13;;;;;;;5.64;56.00;96529.34;5084905;28;20111;-77
2022/03/17 11:22:44;;;;;;;11.00;6.53;;;;;;;5.66;55.30;96522.09;5068506;28;20456;-75
2022/03/17 11:25:23;;;;;;;9.35;6.25;;;;;;;5.69;54.95;96521.88;5068753;28;20486;-78
2022/03/17 11:27:50;;;;;;;13.90;7.10;;;;;;;5.67;56.54;96518.47;5084044;28;20115;-78
2022/03/17 11:30:15;;;;;;;10.13;6.47;;;;;;;5.67;56.30;96524.63;5084552;28;20502;-75
2022/03/17 11:32:54;;;;;;;10.18;7.03;;;;;;;5.70;56.50;96518.22;5083306;28;20044;-77
2022/03/17 11:35:32;;;;;;;12.88;7.85;;;;;;;5.71;56.32;96519.09;5067619;28;20020;-76
2022/03/17 11:38:18;;;;;;;11.52;7.15;;;;;;;5.78;56.22;96515.81;5084853;28;20062;-78
2022/03/17 11:41:08;;;;;;;11.48;6.90;;;;;;;5.73;56.85;96523.31;5085247;28;20039;-77
2022/03/17 11:43:46;;;;;;;11.43;7.25;;;;;;;5.77;56.29;96511.44;5085785;28;20026;-78
2022/03/17 11:46:21;;;;;;;17.05;8.98;;;;;;;5.81;56.75;96510.25;5085661;28;20383;-78
2022/03/17 11:48:50;;;;;;;13.80;8.32;;;;;;;5.80;57.14;96519.19;5085175;28;20475;-77
2022/03/17 11:51:15;;;;;;;12.13;6.53;;;;;;;5.81;55.65;96512.06;5086187;28;20036;-78
2022/03/17 11:53:47;;;;;;;11.00;6.70;;;;;;;5.67;56.26;96519.31;5084861;28;20039;-78